sensor_id;sensor_type;location;lat;lon;timestamp;pressure;altitude;pressure_sealevel;temperature;humidity
12182;BME280;6154;51.550;12.138;2023-03-21T00:01:49;100672.38;;;14.87;55.75
12182;BME280;6154;51.550;12.138;2023-03-21T00:04:17;100677.37;;;14.92;55.73
12182;BME280;6154;51.550;12.138;2023-03-21T00:06:47;100676.00;;;14.86;55.85
12182;BME280;6154;51.550;12.138;2023-03-21T00:09:15;100673.12;;;14.89;55.75
12182;BME280;6154;51.550;12.138;2023-03-21T00:11:47;100671.09;;;14.93;55.71
12182;BME280;6154;51.550;12.138;2023-03-21T00:14:15;100675.28;;;14.84;56.00
12182;BME280;6154;51.550;12.138;2023-03-21T00:16:45;100680.59;;;14.84;56.02
12182;BME280;6154;51.550;12.138;2023-03-21T00:19:17;100683.16;;;14.99;55.74
12182;BME280;6154;51.550;12.138;2023-03-21T00:21:48;100692.62;;;15.03;55.55
12182;BME280;6154;51.550;12.138;2023-03-21T00:24:35;100684.63;;;15.03;55.54
12182;BME280;6154;51.550;12.138;2023-03-21T00:27:03;100679.94;;;14.81;55.84
12182;BME280;6154;51.550;12.138;2023-03-21T00:29:54;100677.72;;;14.87;55.99
12182;BME280;6154;51.550;12.138;2023-03-21T00:32:22;100683.56;;;14.92;55.71
12182;BME280;6154;51.550;12.138;2023-03-21T00:34:51;100681.22;;;15.01;55.60
12182;BME280;6154;51.550;12.138;2023-03-21T00:37:41;100676.44;;;15.06;55.54
12182;BME280;6154;51.550;12.138;2023-03-21T00:40:11;100668.09;;;15.10;55.60
12182;BME280;6154;51.550;12.138;2023-03-21T00:42:52;100669.69;;;15.13;55.50
12182;BME280;6154;51.550;12.138;2023-03-21T00:45:20;100674.63;;;15.19;55.39
12182;BME280;6154;51.550;12.138;2023-03-21T00:47:48;100668.31;;;15.20;55.41
12182;BME280;6154;51.550;12.138;2023-03-21T00:50:17;100666.09;;;15.14;55.58
12182;BME280;6154;51.550;12.138;2023-03-21T00:52:48;100653.72;;;15.13;55.72
12182;BME280;6154;51.550;12.138;2023-03-21T00:55:18;100659.38;;;15.08;55.79
12182;BME280;6154;51.550;12.138;2023-03-21T00:57:47;100659.03;;;15.13;55.71
12182;BME280;6154;51.550;12.138;2023-03-21T01:00:27;100653.50;;;15.16;55.68
12182;BME280;6154;51.550;12.138;2023-03-21T01:02:56;100656.38;;;15.13;55.80
12182;BME280;6154;51.550;12.138;2023-03-21T01:05:37;100651.03;;;15.13;55.81
12182;BME280;6154;51.550;12.138;2023-03-21T01:08:26;100652.84;;;15.12;55.96
12182;BME280;6154;51.550;12.138;2023-03-21T01:11:10;100643.16;;;15.11;55.99
12182;BME280;6154;51.550;12.138;2023-03-21T01:13:39;100644.84;;;15.12;56.16
12182;BME280;6154;51.550;12.138;2023-03-21T01:16:22;100650.31;;;15.11;56.39
12182;BME280;6154;51.550;12.138;2023-03-21T01:18:51;100646.91;;;15.09;56.21
12182;BME280;6154;51.550;12.138;2023-03-21T01:21:20;100644.97;;;15.11;56.19
12182;BME280;6154;51.550;12.138;2023-03-21T01:23:49;100647.53;;;15.12;56.07
12182;BME280;6154;51.550;12.138;2023-03-21T01:26:17;100642.19;;;15.12;56.15
12182;BME280;6154;51.550;12.138;2023-03-21T01:28:45;100642.19;;;15.12;56.03
12182;BME280;6154;51.550;12.138;2023-03-21T01:31:15;100642.31;;;15.11;56.13
12182;BME280;6154;51.550;12.138;2023-03-21T01:33:44;100649.34;;;15.12;56.15
12182;BME280;6154;51.550;12.138;2023-03-21T01:36:16;100650.22;;;15.00;56.75
12182;BME280;6154;51.550;12.138;2023-03-21T01:38:50;100646.69;;;14.99;56.70
12182;BME280;6154;51.550;12.138;2023-03-21T01:41:23;100642.22;;;15.00;56.64
12182;BME280;6154;51.550;12.138;2023-03-21T01:44:16;100644.03;;;14.99;56.76
12182;BME280;6154;51.550;12.138;2023-03-21T01:46:46;100639.66;;;14.98;56.83
12182;BME280;6154;51.550;12.138;2023-03-21T01:49:38;100644.13;;;14.98;56.93
12182;BME280;6154;51.550;12.138;2023-03-21T01:52:09;100634.66;;;14.93;57.19
12182;BME280;6154;51.550;12.138;2023-03-21T01:54:55;100632.19;;;14.90;57.43
12182;BME280;6154;51.550;12.138;2023-03-21T01:57:26;100628.78;;;14.88;57.43
12182;BME280;6154;51.550;12.138;2023-03-21T02:00:11;100628.16;;;14.85;57.68
12182;BME280;6154;51.550;12.138;2023-03-21T02:02:44;100630.94;;;14.83;57.74
12182;BME280;6154;51.550;12.138;2023-03-21T02:05:25;100620.28;;;14.83;57.58
12182;BME280;6154;51.550;12.138;2023-03-21T02:07:54;100623.78;;;14.84;57.59
12182;BME280;6154;51.550;12.138;2023-03-21T02:10:24;100619.31;;;14.84;57.87
12182;BME280;6154;51.550;12.138;2023-03-21T02:12:58;100622.06;;;14.83;57.85
12182;BME280;6154;51.550;12.138;2023-03-21T02:15:35;100618.53;;;14.82;57.96
12182;BME280;6154;51.550;12.138;2023-03-21T02:18:09;100616.00;;;14.81;58.04
12182;BME280;6154;51.550;12.138;2023-03-21T02:20:57;100622.28;;;14.80;58.21
12182;BME280;6154;51.550;12.138;2023-03-21T02:23:54;100616.22;;;14.78;58.49
12182;BME280;6154;51.550;12.138;2023-03-21T02:32:38;100606.19;;;14.81;58.05
12182;BME280;6154;51.550;12.138;2023-03-21T02:35:23;100607.13;;;14.80;57.91
12182;BME280;6154;51.550;12.138;2023-03-21T02:37:58;100608.84;;;14.81;58.18
12182;BME280;6154;51.550;12.138;2023-03-21T02:40:31;100604.59;;;14.79;57.81
12182;BME280;6154;51.550;12.138;2023-03-21T02:43:06;100594.66;;;14.81;57.69
12182;BME280;6154;51.550;12.138;2023-03-21T02:45:51;100603.50;;;14.81;57.77
12182;BME280;6154;51.550;12.138;2023-03-21T02:48:24;100605.34;;;14.81;57.82
12182;BME280;6154;51.550;12.138;2023-03-21T02:51:06;100604.59;;;14.79;57.78
12182;BME280;6154;51.550;12.138;2023-03-21T02:53:39;100601.06;;;14.78;57.80
12182;BME280;6154;51.550;12.138;2023-03-21T02:56:09;100603.63;;;14.80;57.90
12182;BME280;6154;51.550;12.138;2023-03-21T02:58:38;100607.13;;;14.80;57.97
12182;BME280;6154;51.550;12.138;2023-03-21T03:01:09;100603.84;;;14.77;58.39
12182;BME280;6154;51.550;12.138;2023-03-21T03:03:37;100605.78;;;14.75;58.59
12182;BME280;6154;51.550;12.138;2023-03-21T03:06:12;100598.81;;;14.72;58.57
12182;BME280;6154;51.550;12.138;2023-03-21T03:08:55;100608.62;;;14.72;58.48
12182;BME280;6154;51.550;12.138;2023-03-21T03:11:32;100602.25;;;14.74;58.34
12182;BME280;6154;51.550;12.138;2023-03-21T03:14:24;100599.59;;;14.74;58.22
12182;BME280;6154;51.550;12.138;2023-03-21T03:17:21;100602.87;;;14.78;57.82
12182;BME280;6154;51.550;12.138;2023-03-21T03:20:05;100595.22;;;14.73;58.28
12182;BME280;6154;51.550;12.138;2023-03-21T03:22:51;100598.94;;;14.71;58.73
12182;BME280;6154;51.550;12.138;2023-03-21T03:25:28;100593.19;;;14.64;58.56
12182;BME280;6154;51.550;12.138;2023-03-21T03:28:10;100598.53;;;14.64;58.57
12182;BME280;6154;51.550;12.138;2023-03-21T03:30:41;100592.25;;;14.65;58.17
12182;BME280;6154;51.550;12.138;2023-03-21T03:33:27;100592.34;;;14.63;58.26
12182;BME280;6154;51.550;12.138;2023-03-21T03:35:58;100591.28;;;14.66;58.15
12182;BME280;6154;51.550;12.138;2023-03-21T03:38:34;100591.28;;;14.66;58.14
12182;BME280;6154;51.550;12.138;2023-03-21T03:41:08;100589.56;;;14.65;58.07
12182;BME280;6154;51.550;12.138;2023-03-21T03:43:42;100582.56;;;14.64;58.08
12182;BME280;6154;51.550;12.138;2023-03-21T03:46:18;100584.44;;;14.62;57.92
12182;BME280;6154;51.550;12.138;2023-03-21T03:48:48;100588.91;;;14.61;57.85
12182;BME280;6154;51.550;12.138;2023-03-21T03:51:21;100586.91;;;14.65;57.99
12182;BME280;6154;51.550;12.138;2023-03-21T03:53:54;100583.28;;;14.66;57.77
12182;BME280;6154;51.550;12.138;2023-03-21T03:56:26;100583.28;;;14.66;57.78
12182;BME280;6154;51.550;12.138;2023-03-21T03:58:56;100584.03;;;14.68;57.73
12182;BME280;6154;51.550;12.138;2023-03-21T04:01:25;100583.19;;;14.68;57.65
12182;BME280;6154;51.550;12.138;2023-03-21T04:03:55;100583.81;;;14.71;57.56
12182;BME280;6154;51.550;12.138;2023-03-21T04:06:38;100574.56;;;14.64;57.64
12182;BME280;6154;51.550;12.138;2023-03-21T04:09:07;100577.84;;;14.55;58.57
12182;BME280;6154;51.550;12.138;2023-03-21T04:11:49;100574.41;;;14.53;58.69
12182;BME280;6154;51.550;12.138;2023-03-21T04:14:17;100583.94;;;14.57;58.42
12182;BME280;6154;51.550;12.138;2023-03-21T04:16:45;100579.66;;;14.54;58.80
12182;BME280;6154;51.550;12.138;2023-03-21T04:19:13;100575.09;;;14.56;58.69
12182;BME280;6154;51.550;12.138;2023-03-21T04:21:42;100576.66;;;14.59;58.37
12182;BME280;6154;51.550;12.138;2023-03-21T04:24:11;100574.44;;;14.65;58.18
12182;BME280;6154;51.550;12.138;2023-03-21T04:26:40;100578.81;;;14.66;58.30
12182;BME280;6154;51.550;12.138;2023-03-21T04:29:12;100577.97;;;14.66;58.30
12182;BME280;6154;51.550;12.138;2023-03-21T04:31:41;100580.19;;;14.59;58.78
12182;BME280;6154;51.550;12.138;2023-03-21T04:34:12;100572.72;;;14.52;59.01
12182;BME280;6154;51.550;12.138;2023-03-21T04:36:40;100575.94;;;14.57;58.82
12182;BME280;6154;51.550;12.138;2023-03-21T04:39:12;100570.38;;;14.60;58.40
12182;BME280;6154;51.550;12.138;2023-03-21T04:41:41;100570.16;;;14.63;58.22
12182;BME280;6154;51.550;12.138;2023-03-21T04:44:10;100576.16;;;14.66;58.16
12182;BME280;6154;51.550;12.138;2023-03-21T04:46:41;100567.41;;;14.64;58.18
12182;BME280;6154;51.550;12.138;2023-03-21T04:49:09;100564.62;;;14.66;58.17
12182;BME280;6154;51.550;12.138;2023-03-21T04:51:37;100568.03;;;14.68;58.21
12182;BME280;6154;51.550;12.138;2023-03-21T04:54:07;100572.63;;;14.66;58.35
12182;BME280;6154;51.550;12.138;2023-03-21T04:56:38;100580.81;;;14.63;58.59
12182;BME280;6154;51.550;12.138;2023-03-21T04:59:10;100568.28;;;14.65;58.31
12182;BME280;6154;51.550;12.138;2023-03-21T05:01:38;100573.38;;;14.68;58.28
12182;BME280;6154;51.550;12.138;2023-03-21T05:04:12;100573.91;;;14.73;58.04
12182;BME280;6154;51.550;12.138;2023-03-21T05:06:42;100577.44;;;14.74;58.35
12182;BME280;6154;51.550;12.138;2023-03-21T05:09:11;100574.00;;;14.72;58.48
12182;BME280;6154;51.550;12.138;2023-03-21T05:11:40;100568.38;;;14.63;58.85
12182;BME280;6154;51.550;12.138;2023-03-21T05:14:11;100577.53;;;14.59;58.83
12182;BME280;6154;51.550;12.138;2023-03-21T05:16:42;100568.38;;;14.63;58.64
12182;BME280;6154;51.550;12.138;2023-03-21T05:19:15;100577.31;;;14.62;58.75
12182;BME280;6154;51.550;12.138;2023-03-21T05:21:45;100572.09;;;14.61;58.74
12182;BME280;6154;51.550;12.138;2023-03-21T05:24:15;100574.84;;;14.59;58.80
12182;BME280;6154;51.550;12.138;2023-03-21T05:26:46;100567.84;;;14.58;58.76
12182;BME280;6154;51.550;12.138;2023-03-21T05:29:18;100570.38;;;14.60;58.87
12182;BME280;6154;51.550;12.138;2023-03-21T05:31:48;100572.09;;;14.61;58.79
12182;BME280;6154;51.550;12.138;2023-03-21T05:34:19;100569.53;;;14.59;58.90
12182;BME280;6154;51.550;12.138;2023-03-21T05:36:47;100569.41;;;14.61;59.01
12182;BME280;6154;51.550;12.138;2023-03-21T05:39:16;100571.22;;;14.60;59.00
12182;BME280;6154;51.550;12.138;2023-03-21T05:41:44;100566.34;;;14.67;58.70
12182;BME280;6154;51.550;12.138;2023-03-21T05:44:12;100575.06;;;14.69;58.70
12182;BME280;6154;51.550;12.138;2023-03-21T05:46:41;100568.59;;;14.73;58.33
12182;BME280;6154;51.550;12.138;2023-03-21T05:49:10;100563.16;;;14.75;58.32
12182;BME280;6154;51.550;12.138;2023-03-21T05:51:41;100559.53;;;14.76;58.48
12182;BME280;6154;51.550;12.138;2023-03-21T05:54:11;100561.22;;;14.77;58.47
12182;BME280;6154;51.550;12.138;2023-03-21T05:56:42;100567.19;;;14.80;58.46
12182;BME280;6154;51.550;12.138;2023-03-21T05:59:11;100573.16;;;14.84;58.36
12182;BME280;6154;51.550;12.138;2023-03-21T06:01:39;100555.97;;;14.88;58.24
12182;BME280;6154;51.550;12.138;2023-03-21T06:04:09;100568.13;;;14.92;58.14
12182;BME280;6154;51.550;12.138;2023-03-21T06:06:38;100564.19;;;14.98;58.07
12182;BME280;6154;51.550;12.138;2023-03-21T06:09:09;100565.87;;;14.99;57.93
12182;BME280;6154;51.550;12.138;2023-03-21T06:11:43;100563.94;;;15.01;57.89
12182;BME280;6154;51.550;12.138;2023-03-21T06:14:14;100573.56;;;15.03;58.07
12182;BME280;6154;51.550;12.138;2023-03-21T06:16:43;100573.44;;;15.05;57.86
12182;BME280;6154;51.550;12.138;2023-03-21T06:19:12;100574.19;;;15.07;57.78
12182;BME280;6154;51.550;12.138;2023-03-21T06:21:41;100572.03;;;15.12;57.79
12182;BME280;6154;51.550;12.138;2023-03-21T06:24:12;100573.13;;;15.09;57.62
12182;BME280;6154;51.550;12.138;2023-03-21T06:26:40;100562.56;;;15.08;57.93
12182;BME280;6154;51.550;12.138;2023-03-21T06:29:09;100572.03;;;15.12;57.89
12182;BME280;6154;51.550;12.138;2023-03-21T06:31:40;100562.63;;;15.19;57.99
12182;BME280;6154;51.550;12.138;2023-03-21T06:34:08;100567.13;;;15.18;58.05
12182;BME280;6154;51.550;12.138;2023-03-21T06:36:37;100571.06;;;15.26;57.89
12182;BME280;6154;51.550;12.138;2023-03-21T06:39:05;100575.44;;;15.27;57.73
12182;BME280;6154;51.550;12.138;2023-03-21T06:41:37;100570.72;;;15.30;57.84
12182;BME280;6154;51.550;12.138;2023-03-21T06:44:06;100576.22;;;15.40;57.65
12182;BME280;6154;51.550;12.138;2023-03-21T06:46:35;100573.25;;;15.44;57.70
12182;BME280;6154;51.550;12.138;2023-03-21T06:49:03;100581.62;;;15.51;57.65
12182;BME280;6154;51.550;12.138;2023-03-21T06:51:31;100579.50;;;15.56;57.53
12182;BME280;6154;51.550;12.138;2023-03-21T06:54:00;100570.41;;;15.59;57.46
12182;BME280;6154;51.550;12.138;2023-03-21T06:56:28;100579.37;;;15.58;57.22
12182;BME280;6154;51.550;12.138;2023-03-21T06:58:58;100571.69;;;15.66;57.43
12182;BME280;6154;51.550;12.138;2023-03-21T07:01:27;100572.44;;;15.68;57.48
12182;BME280;6154;51.550;12.138;2023-03-21T07:03:57;100562.50;;;15.70;57.24
12182;BME280;6154;51.550;12.138;2023-03-21T07:06:26;100560.56;;;15.72;57.25
12182;BME280;6154;51.550;12.138;2023-03-21T07:08:54;100571.03;;;15.75;57.01
12182;BME280;6154;51.550;12.138;2023-03-21T07:11:23;100568.22;;;15.76;57.43
12182;BME280;6154;51.550;12.138;2023-03-21T07:13:52;100564.75;;;15.87;57.26
12182;BME280;6154;51.550;12.138;2023-03-21T07:16:23;100566.47;;;15.88;57.18
12182;BME280;6154;51.550;12.138;2023-03-21T07:18:52;100570.38;;;15.95;57.08
12182;BME280;6154;51.550;12.138;2023-03-21T07:21:20;100571.59;;;16.02;57.08
12182;BME280;6154;51.550;12.138;2023-03-21T07:23:48;100571.28;;;16.07;56.85
12182;BME280;6154;51.550;12.138;2023-03-21T07:26:17;100568.25;;;16.12;56.82
12182;BME280;6154;51.550;12.138;2023-03-21T07:28:45;100576.53;;;16.20;56.86
12182;BME280;6154;51.550;12.138;2023-03-21T07:31:15;100567.53;;;16.21;56.64
12182;BME280;6154;51.550;12.138;2023-03-21T07:33:45;100573.72;;;16.21;56.44
12182;BME280;6154;51.550;12.138;2023-03-21T07:36:14;100575.69;;;16.30;56.51
12182;BME280;6154;51.550;12.138;2023-03-21T07:38:44;100572.31;;;16.39;56.62
12182;BME280;6154;51.550;12.138;2023-03-21T07:41:13;100571.50;;;16.50;56.41
12182;BME280;6154;51.550;12.138;2023-03-21T07:43:42;100572.03;;;16.66;56.50
12182;BME280;6154;51.550;12.138;2023-03-21T07:46:10;100568.66;;;16.76;56.33
12182;BME280;6154;51.550;12.138;2023-03-21T07:48:38;100574.97;;;16.86;56.16
12182;BME280;6154;51.550;12.138;2023-03-21T07:51:08;100571.19;;;17.00;56.24
12182;BME280;6154;51.550;12.138;2023-03-21T07:53:36;100569.16;;;17.14;55.95
12182;BME280;6154;51.550;12.138;2023-03-21T07:56:05;100566.56;;;17.35;55.96
12182;BME280;6154;51.550;12.138;2023-03-21T07:58:33;100568.09;;;17.49;55.81
12182;BME280;6154;51.550;12.138;2023-03-21T08:01:01;100571.28;;;17.43;55.58
12182;BME280;6154;51.550;12.138;2023-03-21T08:03:29;100566.91;;;17.42;55.64
12182;BME280;6154;51.550;12.138;2023-03-21T08:05:59;100563.13;;;17.56;54.96
12182;BME280;6154;51.550;12.138;2023-03-21T08:08:29;100569.03;;;17.70;55.28
12182;BME280;6154;51.550;12.138;2023-03-21T08:10:57;100567.78;;;17.86;55.29
12182;BME280;6154;51.550;12.138;2023-03-21T08:13:25;100566.25;;;18.04;55.25
12182;BME280;6154;51.550;12.138;2023-03-21T08:15:53;100570.62;;;18.05;54.77
12182;BME280;6154;51.550;12.138;2023-03-21T08:18:22;100571.22;;;18.08;55.07
12182;BME280;6154;51.550;12.138;2023-03-21T08:20:51;100570.44;;;18.18;55.11
12182;BME280;6154;51.550;12.138;2023-03-21T08:23:19;100571.22;;;18.29;54.97
12182;BME280;6154;51.550;12.138;2023-03-21T08:25:52;100575.22;;;18.14;54.54
12182;BME280;6154;51.550;12.138;2023-03-21T08:28:21;100581.62;;;17.91;54.50
12182;BME280;6154;51.550;12.138;2023-03-21T08:30:50;100574.09;;;18.17;55.14
12182;BME280;6154;51.550;12.138;2023-03-21T08:33:19;100571.22;;;18.29;54.82
12182;BME280;6154;51.550;12.138;2023-03-21T08:35:47;100580.59;;;18.35;54.81
12182;BME280;6154;51.550;12.138;2023-03-21T08:38:15;100577.06;;;18.55;54.86
12182;BME280;6154;51.550;12.138;2023-03-21T08:40:43;100575.47;;;18.53;54.26
12182;BME280;6154;51.550;12.138;2023-03-21T08:43:12;100581.25;;;18.69;54.41
12182;BME280;6154;51.550;12.138;2023-03-21T08:45:41;100583.13;;;18.57;54.41
12182;BME280;6154;51.550;12.138;2023-03-21T08:48:09;100585.25;;;18.63;54.58
12182;BME280;6154;51.550;12.138;2023-03-21T08:50:37;100576.37;;;18.63;54.73
12182;BME280;6154;51.550;12.138;2023-03-21T08:53:06;100575.94;;;18.58;54.07
12182;BME280;6154;51.550;12.138;2023-03-21T08:55:34;100576.06;;;18.56;54.34
12182;BME280;6154;51.550;12.138;2023-03-21T08:58:02;100566.41;;;18.65;54.41
12182;BME280;6154;51.550;12.138;2023-03-21T09:00:32;100581.22;;;18.90;54.30
12182;BME280;6154;51.550;12.138;2023-03-21T09:03:00;100576.72;;;19.00;53.95
12182;BME280;6154;51.550;12.138;2023-03-21T09:05:31;100573.56;;;19.16;53.67
12182;BME280;6154;51.550;12.138;2023-03-21T09:07:59;100575.13;;;19.18;53.77
12182;BME280;6154;51.550;12.138;2023-03-21T09:10:29;100570.19;;;19.33;53.76
12182;BME280;6154;51.550;12.138;2023-03-21T09:12:57;100568.00;;;19.48;53.47
12182;BME280;6154;51.550;12.138;2023-03-21T09:15:26;100571.09;;;19.53;53.38
12182;BME280;6154;51.550;12.138;2023-03-21T09:17:57;100573.50;;;19.46;53.47
12182;BME280;6154;51.550;12.138;2023-03-21T09:20:39;100570.72;;;19.58;53.52
12182;BME280;6154;51.550;12.138;2023-03-21T09:23:08;100569.19;;;19.65;52.98
12182;BME280;6154;51.550;12.138;2023-03-21T09:25:38;100556.47;;;19.67;52.87
12182;BME280;6154;51.550;12.138;2023-03-21T09:28:07;100553.94;;;19.65;53.20
12182;BME280;6154;51.550;12.138;2023-03-21T09:30:35;100555.47;;;19.68;52.81
12182;BME280;6154;51.550;12.138;2023-03-21T09:33:05;100555.34;;;19.89;52.96
12182;BME280;6154;51.550;12.138;2023-03-21T09:35:35;100555.66;;;19.95;52.69
12182;BME280;6154;51.550;12.138;2023-03-21T09:38:04;100554.06;;;20.12;52.63
12182;BME280;6154;51.550;12.138;2023-03-21T09:40:45;100551.94;;;20.25;52.05
12182;BME280;6154;51.550;12.138;2023-03-21T09:43:25;100545.41;;;20.37;49.91
12182;BME280;6154;51.550;12.138;2023-03-21T09:46:03;100543.25;;;20.41;50.63
12182;BME280;6154;51.550;12.138;2023-03-21T09:48:37;100538.50;;;20.35;51.60
12182;BME280;6154;51.550;12.138;2023-03-21T09:51:22;100534.22;;;20.52;50.87
12182;BME280;6154;51.550;12.138;2023-03-21T09:53:54;100529.84;;;20.51;50.29
12182;BME280;6154;51.550;12.138;2023-03-21T09:56:24;100532.37;;;20.52;51.51
12182;BME280;6154;51.550;12.138;2023-03-21T09:58:54;100536.44;;;20.66;51.25
12182;BME280;6154;51.550;12.138;2023-03-21T10:01:26;100541.53;;;20.69;51.45
12182;BME280;6154;51.550;12.138;2023-03-21T10:03:59;100531.44;;;20.81;51.15
12182;BME280;6154;51.550;12.138;2023-03-21T10:06:29;100525.13;;;21.00;51.16
12182;BME280;6154;51.550;12.138;2023-03-21T10:09:01;100531.09;;;21.21;51.48
12182;BME280;6154;51.550;12.138;2023-03-21T10:11:39;100530.38;;;21.29;48.81
12182;BME280;6154;51.550;12.138;2023-03-21T10:14:15;100527.53;;;21.30;49.59
12182;BME280;6154;51.550;12.138;2023-03-21T10:16:47;100519.28;;;21.32;49.03
12182;BME280;6154;51.550;12.138;2023-03-21T10:19:19;100518.44;;;21.31;50.07
12182;BME280;6154;51.550;12.138;2023-03-21T10:21:49;100520.72;;;21.36;50.33
12182;BME280;6154;51.550;12.138;2023-03-21T10:24:28;100513.41;;;21.46;50.13
12182;BME280;6154;51.550;12.138;2023-03-21T10:26:59;100504.31;;;22.00;50.63
12182;BME280;6154;51.550;12.138;2023-03-21T10:29:31;100500.72;;;22.35;50.22
12182;BME280;6154;51.550;12.138;2023-03-21T10:32:03;100503.03;;;22.56;48.96
12182;BME280;6154;51.550;12.138;2023-03-21T10:34:36;100491.13;;;22.67;50.03
12182;BME280;6154;51.550;12.138;2023-03-21T10:37:05;100489.94;;;22.70;48.67
12182;BME280;6154;51.550;12.138;2023-03-21T10:39:36;100487.50;;;22.84;50.13
12182;BME280;6154;51.550;12.138;2023-03-21T10:42:05;100489.91;;;22.87;48.57
12182;BME280;6154;51.550;12.138;2023-03-21T10:44:34;100487.59;;;23.01;49.29
12182;BME280;6154;51.550;12.138;2023-03-21T10:47:04;100483.56;;;23.13;49.70
12182;BME280;6154;51.550;12.138;2023-03-21T10:49:35;100483.06;;;23.09;49.25
12182;BME280;6154;51.550;12.138;2023-03-21T10:52:26;100491.13;;;23.01;48.53
12182;BME280;6154;51.550;12.138;2023-03-21T10:55:06;100485.28;;;23.22;47.92
12182;BME280;6154;51.550;12.138;2023-03-21T10:57:35;100489.69;;;23.15;46.35
12182;BME280;6154;51.550;12.138;2023-03-21T11:00:07;100480.84;;;22.97;49.21
12182;BME280;6154;51.550;12.138;2023-03-21T11:02:47;100481.91;;;23.20;48.39
12182;BME280;6154;51.550;12.138;2023-03-21T11:05:21;100482.84;;;23.03;48.53
12182;BME280;6154;51.550;12.138;2023-03-21T11:07:57;100476.12;;;23.07;46.56
12182;BME280;6154;51.550;12.138;2023-03-21T11:10:28;100472.28;;;23.17;46.42
12182;BME280;6154;51.550;12.138;2023-03-21T11:13:01;100473.50;;;23.31;48.89
12182;BME280;6154;51.550;12.138;2023-03-21T11:15:31;100479.66;;;22.99;46.85
12182;BME280;6154;51.550;12.138;2023-03-21T11:18:12;100475.81;;;23.10;48.77
12182;BME280;6154;51.550;12.138;2023-03-21T11:20:47;100462.34;;;23.34;46.21
12182;BME280;6154;51.550;12.138;2023-03-21T11:23:16;100463.03;;;23.28;45.30
12182;BME280;6154;51.550;12.138;2023-03-21T11:25:48;100455.09;;;23.43;47.25
12182;BME280;6154;51.550;12.138;2023-03-21T11:28:21;100451.41;;;23.36;47.57
12182;BME280;6154;51.550;12.138;2023-03-21T11:30:51;100454.31;;;23.59;46.85
12182;BME280;6154;51.550;12.138;2023-03-21T11:33:24;100451.94;;;23.64;48.41
12182;BME280;6154;51.550;12.138;2023-03-21T11:36:00;100445.19;;;23.60;47.24
12182;BME280;6154;51.550;12.138;2023-03-21T11:38:34;100446.34;;;23.57;45.17
12182;BME280;6154;51.550;12.138;2023-03-21T11:41:04;100450.91;;;23.57;46.03
12182;BME280;6154;51.550;12.138;2023-03-21T11:43:34;100438.72;;;23.28;45.22
12182;BME280;6154;51.550;12.138;2023-03-21T11:46:07;100439.75;;;23.43;47.64
12182;BME280;6154;51.550;12.138;2023-03-21T11:48:39;100441.06;;;23.15;46.06
12182;BME280;6154;51.550;12.138;2023-03-21T11:51:16;100437.81;;;23.11;46.82
12182;BME280;6154;51.550;12.138;2023-03-21T11:53:50;100437.50;;;23.14;45.74
12182;BME280;6154;51.550;12.138;2023-03-21T11:56:25;100425.16;;;22.96;45.68
12182;BME280;6154;51.550;12.138;2023-03-21T11:59:03;100420.13;;;23.09;45.13
12182;BME280;6154;51.550;12.138;2023-03-21T12:01:40;100424.81;;;22.99;45.51
12182;BME280;6154;51.550;12.138;2023-03-21T12:04:19;100416.69;;;22.90;45.90
12182;BME280;6154;51.550;12.138;2023-03-21T12:06:55;100410.88;;;23.28;45.59
12182;BME280;6154;51.550;12.138;2023-03-21T12:09:36;100413.75;;;23.42;46.86
12182;BME280;6154;51.550;12.138;2023-03-21T12:12:21;100413.75;;;23.50;44.66
12182;BME280;6154;51.550;12.138;2023-03-21T12:15:11;100404.00;;;23.66;44.48
12182;BME280;6154;51.550;12.138;2023-03-21T12:17:50;100396.50;;;23.92;46.22
12182;BME280;6154;51.550;12.138;2023-03-21T12:20:34;100392.25;;;24.14;44.81
12182;BME280;6154;51.550;12.138;2023-03-21T12:23:35;100400.72;;;23.54;42.08
12182;BME280;6154;51.550;12.138;2023-03-21T12:26:16;100389.13;;;23.70;41.45
12182;BME280;6154;51.550;12.138;2023-03-21T12:28:58;100388.44;;;23.76;44.02
12182;BME280;6154;51.550;12.138;2023-03-21T12:31:38;100374.19;;;24.06;44.97
12182;BME280;6154;51.550;12.138;2023-03-21T12:34:19;100377.16;;;24.28;45.95
12182;BME280;6154;51.550;12.138;2023-03-21T12:37:04;100379.56;;;24.31;44.23
12182;BME280;6154;51.550;12.138;2023-03-21T12:39:38;100369.75;;;24.14;42.97
12182;BME280;6154;51.550;12.138;2023-03-21T12:42:29;100377.56;;;24.08;46.10
12182;BME280;6154;51.550;12.138;2023-03-21T12:45:07;100373.47;;;24.21;43.10
12182;BME280;6154;51.550;12.138;2023-03-21T12:47:44;100367.41;;;24.11;45.68
12182;BME280;6154;51.550;12.138;2023-03-21T12:50:20;100360.13;;;24.11;46.64
12182;BME280;6154;51.550;12.138;2023-03-21T12:52:53;100361.66;;;24.14;45.65
12182;BME280;6154;51.550;12.138;2023-03-21T12:55:25;100361.63;;;24.22;46.24
12182;BME280;6154;51.550;12.138;2023-03-21T12:58:01;100354.22;;;24.16;46.17
12182;BME280;6154;51.550;12.138;2023-03-21T13:00:34;100364.59;;;23.96;44.50
12182;BME280;6154;51.550;12.138;2023-03-21T13:03:10;100358.53;;;23.86;45.68
12182;BME280;6154;51.550;12.138;2023-03-21T13:05:43;100351.38;;;24.01;45.34
12182;BME280;6154;51.550;12.138;2023-03-21T13:08:17;100351.94;;;23.88;46.15
12182;BME280;6154;51.550;12.138;2023-03-21T13:10:49;100348.22;;;23.73;45.50
12182;BME280;6154;51.550;12.138;2023-03-21T13:13:21;100344.84;;;23.71;46.14
12182;BME280;6154;51.550;12.138;2023-03-21T13:15:58;100341.78;;;23.74;46.57
12182;BME280;6154;51.550;12.138;2023-03-21T13:18:36;100337.78;;;23.45;45.13
12182;BME280;6154;51.550;12.138;2023-03-21T13:21:11;100331.34;;;23.63;45.63
12182;BME280;6154;51.550;12.138;2023-03-21T13:23:57;100331.34;;;23.46;44.27
12182;BME280;6154;51.550;12.138;2023-03-21T13:26:36;100325.28;;;23.69;44.16